Time,TemperatureF,DewpointF,PressureIn,WindDirection,WindDirectionDegrees,WindSpeedMPH,WindSpeedGustMPH,Humidity,HourlyPrecipIn,Conditions,Clouds,dailyrainin,SoftwareType,DateUTC
2013-01-25 00:00:00,38.9,32.6,30.19,South,171,11.5,11.5,78,0.00,OVC,,0.00,WeatherDisplay:10.37,2013-01-25 08:00:00,
2013-01-25 00:05:00,38.2,32.3,30.19,South,185,10.4,10.4,79,0.00,BKN,,0.00,WeatherDisplay:10.37,2013-01-25 08:05:00,
2013-01-25 00:10:00,38.8,33.2,30.18,SSW,192,12.7,12.7,80,0.00,BKN,,0.00,WeatherDisplay:10.37,2013-01-25 08:10:00,
2013-01-25 00:15:00,39.5,33.2,30.18,SSW,202,15.0,15.0,78,0.00,BKN,,0.00,WeatherDisplay:10.37,2013-01-25 08:15:00,
2013-01-25 00:20:00,39.1,32.8,30.18,West,263,9.2,9.2,78,0.00,BKN,,0.00,WeatherDisplay:10.37,2013-01-25 08:20:00,
2013-01-25 00:25:00,39.3,33.3,30.18,WSW,240,21.0,21.0,79,0.00,BKN,,0.00,WeatherDisplay:10.37,2013-01-25 08:25:00,
2013-01-25 00:30:00,40.2,33.6,30.18,WSW,248,15.0,15.0,77,0.00,BKN,,0.00,WeatherDisplay:10.37,2013-01-25 08:30:00,
2013-01-25 00:35:00,41.0,33.7,30.17,WSW,250,18.4,18.4,75,0.00,BKN,,0.00,WeatherDisplay:10.37,2013-01-25 08:35:00,
2013-01-25 00:40:00,41.0,33.3,30.18,WSW,258,12.7,12.7,74,0.00,BKN,,0.00,WeatherDisplay:10.37,2013-01-25 08:40:00,
2013-01-25 00:45:00,40.3,33.3,30.19,West,267,15.0,15.0,76,0.00,BKN,,0.00,WeatherDisplay:10.37,2013-01-25 08:45:00,
2013-01-25 00:50:00,39.6,32.7,30.19,WNW,302,4.0,4.0,76,0.00,BKN,,0.00,WeatherDisplay:10.37,2013-01-25 08:50:00,
2013-01-25 00:55:00,38.9,32.0,30.20,WNW,302,2.3,2.3,76,0.00,BKN,,0.00,WeatherDisplay:10.37,2013-01-25 08:55:00,
2013-01-25 01:00:00,38.1,31.2,30.21,WNW,302,2.3,2.3,76,0.00,BKN,,0.00,WeatherDisplay:10.37,2013-01-25 09:00:00,
2013-01-25 01:05:00,37.4,31.2,30.20,WNW,302,2.3,2.3,78,0.00,-RA,,0.00,WeatherDisplay:10.37,2013-01-25 09:05:00,
2013-01-25 01:10:00,36.9,31.0,30.20,WNW,302,0.0,0.0,79,0.00,-RA,,0.00,WeatherDisplay:10.37,2013-01-25 09:10:00,
2013-01-25 01:15:00,36.5,30.9,30.20,WNW,302,3.5,3.5,80,0.00,-RA,,0.00,WeatherDisplay:10.37,2013-01-25 09:15:00,
2013-01-25 01:20:00,36.2,30.9,30.21,WNW,302,2.3,2.3,81,0.00,-RA,,0.00,WeatherDisplay:10.37,2013-01-25 09:20:00,
2013-01-25 01:25:00,36.0,31.0,30.21,WNW,302,0.0,0.0,82,0.00,-RA,,0.00,WeatherDisplay:10.37,2013-01-25 09:25:00,
2013-01-25 01:30:00,35.8,30.8,30.21,WNW,302,0.0,0.0,82,0.00,-RA,,0.00,WeatherDisplay:10.37,2013-01-25 09:30:00,
2013-01-25 01:35:00,35.8,31.1,30.21,WNW,302,0.0,0.0,83,0.00,-RA,,0.00,WeatherDisplay:10.37,2013-01-25 09:35:00,
2013-01-25 01:40:00,36.3,31.6,30.20,WNW,302,3.5,3.5,83,0.00,-RA,,0.00,WeatherDisplay:10.37,2013-01-25 09:40:00,
2013-01-25 01:45:00,37.2,32.2,30.19,South,175,3.5,3.5,82,0.00,-RA,,0.00,WeatherDisplay:10.37,2013-01-25 09:45:00,
2013-01-25 01:50:00,37.7,32.4,30.19,South,175,4.6,4.6,81,0.00,-RA,,0.00,WeatherDisplay:10.37,2013-01-25 09:50:00,
2013-01-25 01:55:00,36.9,31.3,30.20,South,186,3.5,3.5,80,0.00,-RA,,0.00,WeatherDisplay:10.37,2013-01-25 09:55:00,
2013-01-25 02:00:00,36.1,31.7,30.20,SSW,192,9.2,9.2,84,0.00,-RA,,0.00,WeatherDisplay:10.37,2013-01-25 10:00:00,
2013-01-25 02:05:00,37.1,32.7,30.20,SSW,199,11.5,11.5,84,0.00,-RA,,0.00,WeatherDisplay:10.37,2013-01-25 10:05:00,
2013-01-25 02:10:00,37.5,33.1,30.19,SSW,196,10.4,10.4,84,0.00,-RA,,0.00,WeatherDisplay:10.37,2013-01-25 10:10:00,
2013-01-25 02:15:00,38.0,33.3,30.18,South,189,9.2,9.2,83,0.00,-RA,,0.00,WeatherDisplay:10.37,2013-01-25 10:15:00,
2013-01-25 02:20:00,38.1,33.4,30.19,SSW,194,6.9,6.9,83,0.00,-RA,,0.00,WeatherDisplay:10.37,2013-01-25 10:20:00,
2013-01-25 02:25:00,38.1,33.7,30.19,SSW,197,9.2,9.2,84,0.00,-RA,,0.00,WeatherDisplay:10.37,2013-01-25 10:25:00,
2013-01-25 02:30:00,38.1,33.1,30.19,SW,218,4.6,4.6,82,0.00,-RA,,0.00,WeatherDisplay:10.37,2013-01-25 10:30:00,
2013-01-25 02:35:00,37.2,33.1,30.20,SW,223,4.6,4.6,85,0.00,-RA,,0.00,WeatherDisplay:10.37,2013-01-25 10:35:00,
2013-01-25 02:40:00,36.8,32.7,30.20,SW,223,3.5,3.5,85,0.01,-RA,,0.01,WeatherDisplay:10.37,2013-01-25 10:40:00,
2013-01-25 02:45:00,36.6,33.1,30.20,SW,222,3.5,3.5,87,0.01,-RA,,0.01,WeatherDisplay:10.37,2013-01-25 10:45:00,
2013-01-25 02:50:00,36.7,33.2,30.20,SW,223,3.5,3.5,87,0.01,-RA,,0.01,WeatherDisplay:10.37,2013-01-25 10:50:00,
2013-01-25 02:55:00,36.6,33.4,30.19,SW,223,2.3,2.3,88,0.01,-RA,,0.01,WeatherDisplay:10.37,2013-01-25 10:55:00,
2013-01-25 03:00:00,37.1,33.9,30.20,SW,223,2.3,2.3,88,0.01,-RA,,0.01,WeatherDisplay:10.37,2013-01-25 11:00:00,
2013-01-25 03:05:00,37.5,34.3,30.19,SW,223,2.3,2.3,88,0.01,-RA,,0.01,WeatherDisplay:10.37,2013-01-25 11:05:00,
2013-01-25 03:10:00,37.7,34.2,30.19,SW,223,1.1,0.0,87,0.02,-RA,,0.02,WeatherDisplay:10.37,2013-01-25 11:10:00,
2013-01-25 03:15:00,37.1,33.6,30.20,SW,223,3.0,3.0,87,0.02,-RA,,0.02,WeatherDisplay:10.37,2013-01-25 11:15:00,
2013-01-25 03:20:00,37.4,34.2,30.19,SW,222,3.5,3.5,88,0.02,-RA,,0.02,WeatherDisplay:10.37,2013-01-25 11:20:00,
2013-01-25 03:25:00,37.5,34.0,30.19,SW,223,3.5,3.5,87,0.02,-RA,,0.02,WeatherDisplay:10.37,2013-01-25 11:25:00,
2013-01-25 03:30:00,37.4,33.9,30.20,SW,222,3.5,3.5,87,0.02,-RA,,0.02,WeatherDisplay:10.37,2013-01-25 11:30:00,
2013-01-25 03:35:00,37.5,34.0,30.19,SW,223,3.5,3.5,87,0.02,-RA,,0.02,WeatherDisplay:10.37,2013-01-25 11:35:00,
2013-01-25 03:40:00,37.1,33.6,30.20,South,190,4.0,4.0,87,0.01,-RA,,0.02,WeatherDisplay:10.37,2013-01-25 11:40:00,
2013-01-25 03:45:00,37.1,34.2,30.19,South,187,4.0,4.0,89,0.02,-RA,,0.03,WeatherDisplay:10.37,2013-01-25 11:45:00,
2013-01-25 03:50:00,36.9,34.0,30.19,South,187,3.5,3.5,89,0.02,-RA,,0.03,WeatherDisplay:10.37,2013-01-25 11:50:00,
2013-01-25 03:55:00,36.8,33.9,30.19,South,181,3.5,3.5,89,0.02,-RA,,0.03,WeatherDisplay:10.37,2013-01-25 11:55:00,
2013-01-25 04:00:00,36.6,33.7,30.19,South,181,1.1,1.1,89,0.02,-RA,,0.03,WeatherDisplay:10.37,2013-01-25 12:00:00,
2013-01-25 04:05:00,36.3,33.6,30.20,South,181,2.3,2.3,90,0.02,-RA,,0.03,WeatherDisplay:10.37,2013-01-25 12:05:00,
2013-01-25 04:10:00,36.2,33.5,30.20,South,180,3.5,3.5,90,0.01,-RA,,0.03,WeatherDisplay:10.37,2013-01-25 12:10:00,
2013-01-25 04:15:00,35.8,33.2,30.19,South,176,3.5,3.5,90,0.02,-RA,,0.04,WeatherDisplay:10.37,2013-01-25 12:15:00,
2013-01-25 04:20:00,35.2,32.8,30.19,South,172,3.5,3.5,91,0.02,-RA,,0.04,WeatherDisplay:10.37,2013-01-25 12:20:00,
2013-01-25 04:25:00,34.6,32.2,30.19,SSE,152,5.0,5.0,91,0.02,-RA,,0.04,WeatherDisplay:10.37,2013-01-25 12:25:00,
2013-01-25 04:30:00,34.9,32.8,30.19,SE,140,4.6,4.6,92,0.02,-RA,,0.04,WeatherDisplay:10.37,2013-01-25 12:30:00,
2013-01-25 04:35:00,35.5,33.7,30.19,SE,140,4.6,4.6,93,0.02,-RA,,0.04,WeatherDisplay:10.37,2013-01-25 12:35:00,
2013-01-25 04:40:00,35.7,33.6,30.19,SE,140,4.0,4.0,92,0.02,-RA,,0.04,WeatherDisplay:10.37,2013-01-25 12:40:00,
2013-01-25 04:45:00,35.3,33.2,30.19,SE,140,3.5,3.5,92,0.01,-RA,,0.04,WeatherDisplay:10.37,2013-01-25 12:45:00,
2013-01-25 04:50:00,35.2,33.1,30.19,SE,140,2.3,2.3,92,0.01,-RA,,0.04,WeatherDisplay:10.37,2013-01-25 12:50:00,
2013-01-25 04:55:00,35.3,33.2,30.19,SE,140,1.1,1.1,92,0.01,-RA,,0.04,WeatherDisplay:10.37,2013-01-25 12:55:00,
2013-01-25 05:00:00,35.1,33.0,30.20,SE,140,2.3,2.3,92,0.01,-RA,,0.04,WeatherDisplay:10.37,2013-01-25 13:00:00,
2013-01-25 05:05:00,34.8,32.7,30.21,South,186,3.5,3.5,92,0.01,-RA,,0.04,WeatherDisplay:10.37,2013-01-25 13:05:00,
2013-01-25 05:10:00,34.8,32.7,30.20,South,186,2.3,0.0,92,0.01,-RA,,0.04,WeatherDisplay:10.37,2013-01-25 13:10:00,
2013-01-25 05:15:00,34.9,33.1,30.20,South,186,2.3,2.3,93,0.00,-RA,,0.04,WeatherDisplay:10.37,2013-01-25 13:15:00,
2013-01-25 05:20:00,35.0,33.2,30.20,SSE,162,3.5,3.5,93,0.00,-RA,,0.04,WeatherDisplay:10.37,2013-01-25 13:20:00,
2013-01-25 05:25:00,35.3,33.2,30.20,SSE,161,4.6,4.6,92,0.00,-RA,,0.04,WeatherDisplay:10.37,2013-01-25 13:25:00,
2013-01-25 05:30:00,35.4,33.3,30.20,SSE,161,3.5,3.5,92,0.00,-RA,,0.04,WeatherDisplay:10.37,2013-01-25 13:30:00,
2013-01-25 05:35:00,35.2,33.1,30.20,SSE,149,5.8,5.8,92,0.01,-RA,,0.05,WeatherDisplay:10.37,2013-01-25 13:35:00,
2013-01-25 05:40:00,34.7,32.6,30.20,SE,140,4.0,4.0,92,0.01,-RA,,0.05,WeatherDisplay:10.37,2013-01-25 13:40:00,
2013-01-25 05:45:00,34.4,32.3,30.20,SE,140,4.0,4.0,92,0.01,-RA,,0.05,WeatherDisplay:10.37,2013-01-25 13:45:00,
2013-01-25 05:50:00,34.4,32.6,30.20,SE,132,3.5,3.5,93,0.01,-RA,,0.05,WeatherDisplay:10.37,2013-01-25 13:50:00,
2013-01-25 05:55:00,34.4,32.6,30.20,ESE,119,7.0,7.0,93,0.01,-RA,,0.05,WeatherDisplay:10.37,2013-01-25 13:55:00,
2013-01-25 06:00:00,34.4,32.6,30.18,ESE,118,9.2,9.2,93,0.01,-RA,,0.05,WeatherDisplay:10.37,2013-01-25 14:00:00,
2013-01-25 06:05:00,34.4,32.6,30.18,ESE,113,9.2,9.2,93,0.01,OVC,,0.05,WeatherDisplay:10.37,2013-01-25 14:05:00,
2013-01-25 06:11:00,34.4,32.6,30.18,ESE,121,10.4,10.4,93,0.01,OVC,,0.05,WeatherDisplay:10.37,2013-01-25 14:11:00,
2013-01-25 06:16:00,34.4,32.6,30.18,ESE,114,9.2,9.2,93,0.01,OVC,,0.05,WeatherDisplay:10.37,2013-01-25 14:16:00,
2013-01-25 06:21:00,34.4,32.6,30.18,SE,125,6.9,6.9,93,0.01,OVC,,0.05,WeatherDisplay:10.37,2013-01-25 14:21:00,
2013-01-25 06:26:00,34.4,32.6,30.18,ESE,121,5.8,5.8,93,0.01,OVC,,0.05,WeatherDisplay:10.37,2013-01-25 14:26:00,
2013-01-25 06:31:00,34.9,33.1,30.17,SE,126,6.9,6.9,93,0.01,OVC,,0.05,WeatherDisplay:10.37,2013-01-25 14:31:00,
2013-01-25 06:36:00,35.0,33.2,30.17,SE,125,6.9,6.9,93,0.00,OVC,,0.05,WeatherDisplay:10.37,2013-01-25 14:36:00,
2013-01-25 06:41:00,34.5,32.7,30.17,SE,126,3.5,3.5,93,0.00,OVC,,0.05,WeatherDisplay:10.37,2013-01-25 14:41:00,
2013-01-25 06:46:00,34.4,32.6,30.18,SE,125,2.3,2.3,93,0.00,OVC,,0.05,WeatherDisplay:10.37,2013-01-25 14:46:00,
2013-01-25 06:51:00,34.4,32.6,30.17,SE,126,2.3,2.3,93,0.00,OVC,,0.05,WeatherDisplay:10.37,2013-01-25 14:51:00,
2013-01-25 06:56:00,34.4,32.6,30.17,SE,126,2.3,2.3,93,0.00,OVC,,0.05,WeatherDisplay:10.37,2013-01-25 14:56:00,
2013-01-25 07:01:00,34.2,32.4,30.17,SE,125,2.3,2.3,93,0.00,OVC,,0.05,WeatherDisplay:10.37,2013-01-25 15:01:00,
2013-01-25 07:06:00,34.1,32.3,30.17,SE,126,4.6,4.6,93,0.00,OVC,,0.05,WeatherDisplay:10.37,2013-01-25 15:06:00,
2013-01-25 07:11:00,34.3,32.5,30.17,SE,126,3.5,3.9,93,0.00,OVC,,0.05,WeatherDisplay:10.37,2013-01-25 15:11:00,
2013-01-25 07:16:00,34.4,32.6,30.17,SE,126,3.5,3.5,93,0.00,OVC,,0.05,WeatherDisplay:10.37,2013-01-25 15:16:00,
2013-01-25 07:21:00,34.4,32.6,30.16,SE,125,3.5,3.5,93,0.00,OVC,,0.05,WeatherDisplay:10.37,2013-01-25 15:21:00,
2013-01-25 07:26:00,34.4,32.6,30.16,SE,126,3.5,3.5,93,0.00,OVC,,0.05,WeatherDisplay:10.37,2013-01-25 15:26:00,
2013-01-25 07:31:00,34.4,32.6,30.16,SE,126,3.5,3.5,93,0.00,OVC,,0.05,WeatherDisplay:10.37,2013-01-25 15:31:00,
2013-01-25 07:36:00,34.4,32.6,30.16,East,101,4.0,4.0,93,0.00,OVC,,0.05,WeatherDisplay:10.37,2013-01-25 15:36:00,
2013-01-25 07:41:00,34.4,32.6,30.16,East,92,4.6,4.6,93,0.00,OVC,,0.05,WeatherDisplay:10.37,2013-01-25 15:41:00,
2013-01-25 07:46:00,34.8,33.0,30.16,East,92,3.5,3.5,93,0.01,RA,,0.06,WeatherDisplay:10.37,2013-01-25 15:46:00,
2013-01-25 07:51:00,35.0,33.4,30.16,East,92,4.6,4.6,94,0.01,RA,,0.06,WeatherDisplay:10.37,2013-01-25 15:51:00,
2013-01-25 07:56:00,35.6,34.0,30.15,East,91,3.5,3.5,94,0.01,RA,,0.06,WeatherDisplay:10.37,2013-01-25 15:56:00,
2013-01-25 08:01:00,35.8,34.0,30.15,ESE,122,4.6,4.6,93,0.01,OVC,,0.06,WeatherDisplay:10.37,2013-01-25 16:01:00,
2013-01-25 08:06:00,35.8,34.0,30.15,SE,137,6.9,6.9,93,0.01,OVC,,0.06,WeatherDisplay:10.37,2013-01-25 16:06:00,
2013-01-25 08:11:00,35.9,33.8,30.15,SE,137,4.0,4.0,92,0.01,OVC,,0.06,WeatherDisplay:10.37,2013-01-25 16:11:00,
2013-01-25 08:16:00,35.9,33.8,30.15,SE,137,3.5,3.5,92,0.01,OVC,,0.06,WeatherDisplay:10.37,2013-01-25 16:16:00,
2013-01-25 08:21:00,36.2,34.4,30.16,SE,137,3.5,3.5,93,0.01,OVC,,0.06,WeatherDisplay:10.37,2013-01-25 16:21:00,
2013-01-25 08:26:00,36.2,34.1,30.15,SE,137,5.0,5.0,92,0.01,OVC,,0.06,WeatherDisplay:10.37,2013-01-25 16:26:00,
2013-01-25 08:31:00,36.3,34.2,30.16,SE,137,4.0,4.0,92,0.02,RA,,0.07,WeatherDisplay:10.37,2013-01-25 16:31:00,
2013-01-25 08:36:00,36.5,34.4,30.15,SE,137,4.0,4.0,92,0.02,RA,,0.07,WeatherDisplay:10.37,2013-01-25 16:36:00,
2013-01-25 08:41:00,36.5,34.4,30.15,SE,138,4.6,4.7,92,0.02,OVC,,0.07,WeatherDisplay:10.37,2013-01-25 16:41:00,
2013-01-25 08:46:00,36.2,34.1,30.15,SE,137,4.6,4.6,92,0.01,OVC,,0.07,WeatherDisplay:10.37,2013-01-25 16:46:00,
2013-01-25 08:51:00,36.1,34.0,30.15,SE,137,4.6,4.6,92,0.01,OVC,,0.07,WeatherDisplay:10.37,2013-01-25 16:51:00,
2013-01-25 08:56:00,36.3,34.5,30.15,SE,137,5.0,5.0,93,0.01,OVC,,0.07,WeatherDisplay:10.37,2013-01-25 16:56:00,
2013-01-25 09:01:00,36.3,34.2,30.16,SE,137,4.6,4.6,92,0.02,RA,,0.08,WeatherDisplay:10.37,2013-01-25 17:01:00,
2013-01-25 09:06:00,35.8,33.7,30.16,SE,137,4.6,4.6,92,0.02,RA,,0.08,WeatherDisplay:10.37,2013-01-25 17:06:00,
2013-01-25 09:11:00,35.5,33.7,30.16,SE,137,5.0,5.0,93,0.02,OVC,,0.08,WeatherDisplay:10.37,2013-01-25 17:11:00,
2013-01-25 09:16:00,35.5,33.7,30.16,SE,138,4.6,4.6,93,0.02,OVC,,0.08,WeatherDisplay:10.37,2013-01-25 17:16:00,
2013-01-25 09:21:00,35.5,33.7,30.16,SE,138,0.0,0.0,93,0.02,OVC,,0.08,WeatherDisplay:10.37,2013-01-25 17:21:00,
2013-01-25 09:26:00,35.7,33.9,30.16,SE,137,1.1,1.1,93,0.02,OVC,,0.08,WeatherDisplay:10.37,2013-01-25 17:26:00,
2013-01-25 09:31:00,35.9,34.3,30.15,SE,138,0.0,0.0,94,0.01,OVC,,0.08,WeatherDisplay:10.37,2013-01-25 17:31:00,
2013-01-25 09:36:00,36.1,34.5,30.15,SE,137,3.5,3.5,94,0.01,OVC,,0.08,WeatherDisplay:10.37,2013-01-25 17:36:00,
2013-01-25 09:41:00,36.1,34.3,30.15,SE,130,1.1,1.1,93,0.01,OVC,,0.08,WeatherDisplay:10.37,2013-01-25 17:41:00,
2013-01-25 09:46:00,36.2,34.4,30.16,SE,131,2.0,2.0,93,0.01,OVC,,0.08,WeatherDisplay:10.37,2013-01-25 17:46:00,
2013-01-25 09:51:00,36.5,34.9,30.16,SSE,155,3.5,3.5,94,0.01,OVC,,0.08,WeatherDisplay:10.37,2013-01-25 17:51:00,
2013-01-25 09:56:00,37.1,35.3,30.15,South,190,9.0,9.0,93,0.01,OVC,,0.08,WeatherDisplay:10.37,2013-01-25 17:56:00,
2013-01-25 10:01:00,38.0,35.9,30.13,South,187,11.5,11.5,92,0.00,OVC,,0.08,WeatherDisplay:10.37,2013-01-25 18:01:00,
2013-01-25 10:06:00,38.3,35.6,30.13,SSW,199,9.2,9.2,90,0.00,OVC,,0.08,WeatherDisplay:10.37,2013-01-25 18:06:00,
2013-01-25 10:11:00,38.4,35.4,30.13,South,188,5.0,5.0,89,0.00,OVC,,0.08,WeatherDisplay:10.37,2013-01-25 18:11:00,
2013-01-25 10:16:00,38.0,35.0,30.12,South,188,10.4,10.4,89,0.00,OVC,,0.08,WeatherDisplay:10.37,2013-01-25 18:16:00,
2013-01-25 10:21:00,38.4,35.4,30.12,South,182,10.0,10.0,89,0.00,OVC,,0.08,WeatherDisplay:10.37,2013-01-25 18:21:00,
2013-01-25 10:26:00,37.8,34.8,30.13,ESE,123,2.3,2.3,89,0.00,OVC,,0.08,WeatherDisplay:10.37,2013-01-25 18:26:00,
2013-01-25 10:31:00,37.5,34.6,30.13,ENE,70,3.5,3.5,89,0.00,OVC,,0.08,WeatherDisplay:10.37,2013-01-25 18:31:00,
2013-01-25 10:36:00,37.4,34.7,30.14,ENE,70,3.5,3.5,90,0.00,OVC,,0.08,WeatherDisplay:10.37,2013-01-25 18:36:00,
2013-01-25 10:41:00,37.7,35.3,30.13,ENE,78,4.0,4.0,91,0.00,OVC,,0.08,WeatherDisplay:10.37,2013-01-25 18:41:00,
2013-01-25 10:46:00,38.3,35.3,30.13,West,265,12.0,12.0,89,0.00,OVC,,0.08,WeatherDisplay:10.37,2013-01-25 18:46:00,
2013-01-25 10:51:00,39.4,35.9,30.12,SW,232,12.7,12.7,87,0.00,OVC,,0.08,WeatherDisplay:10.37,2013-01-25 18:51:00,
2013-01-25 10:56:00,40.4,36.2,30.11,WSW,240,15.0,15.0,85,0.00,OVC,,0.08,WeatherDisplay:10.37,2013-01-25 18:56:00,
2013-01-25 11:01:00,40.2,35.8,30.10,SW,222,12.7,12.7,84,0.00,OVC,,0.08,WeatherDisplay:10.37,2013-01-25 19:01:00,
2013-01-25 11:06:00,40.3,35.5,30.10,SW,221,12.7,12.7,83,0.00,OVC,,0.08,WeatherDisplay:10.37,2013-01-25 19:06:00,
2013-01-25 11:11:00,40.3,35.8,30.10,SW,224,10.4,10.4,84,0.00,OVC,,0.08,WeatherDisplay:10.37,2013-01-25 19:11:00,
2013-01-25 11:16:00,40.6,36.1,30.09,SSW,211,10.4,10.4,84,0.00,OVC,,0.08,WeatherDisplay:10.37,2013-01-25 19:16:00,
2013-01-25 11:22:00,40.4,35.9,30.10,SW,221,9.2,9.2,84,0.00,OVC,,0.08,WeatherDisplay:10.37,2013-01-25 19:22:00,
2013-01-25 11:27:00,40.9,36.1,30.09,SW,236,3.5,3.5,83,0.00,OVC,,0.08,WeatherDisplay:10.37,2013-01-25 19:27:00,
2013-01-25 11:32:00,41.1,36.3,30.08,SW,236,0.0,0.0,83,0.00,OVC,,0.08,WeatherDisplay:10.37,2013-01-25 19:32:00,
2013-01-25 11:37:00,40.8,36.0,30.08,SW,236,3.5,3.5,83,0.00,OVC,,0.08,WeatherDisplay:10.37,2013-01-25 19:37:00,
2013-01-25 11:42:00,40.8,36.0,30.07,SSW,204,6.0,6.0,83,0.00,OVC,,0.08,WeatherDisplay:10.37,2013-01-25 19:42:00,
2013-01-25 11:47:00,40.4,35.3,30.07,South,178,6.0,6.0,82,0.00,OVC,,0.08,WeatherDisplay:10.37,2013-01-25 19:47:00,
2013-01-25 11:52:00,39.8,34.8,30.08,SSE,167,6.0,6.0,82,0.00,OVC,,0.08,WeatherDisplay:10.37,2013-01-25 19:52:00,
2013-01-25 11:57:00,39.9,35.2,30.07,SSE,165,5.0,5.0,83,0.00,OVC,,0.08,WeatherDisplay:10.37,2013-01-25 19:57:00,
2013-01-25 12:02:00,40.2,35.4,30.07,South,175,6.0,6.0,83,0.00,-RA,,0.08,WeatherDisplay:10.37,2013-01-25 20:02:00,
2013-01-25 12:07:00,40.1,35.0,30.07,South,191,11.5,11.5,82,0.00,-RA,,0.08,WeatherDisplay:10.37,2013-01-25 20:07:00,
2013-01-25 12:12:00,40.2,35.4,30.07,SSW,199,11.5,11.5,83,0.00,-RA,,0.08,WeatherDisplay:10.37,2013-01-25 20:12:00,
2013-01-25 12:17:00,40.6,35.5,30.07,SSW,197,11.5,11.5,82,0.00,-RA,,0.08,WeatherDisplay:10.37,2013-01-25 20:17:00,
2013-01-25 12:22:00,39.7,35.0,30.07,SE,134,3.5,3.5,83,0.00,-RA,,0.08,WeatherDisplay:10.37,2013-01-25 20:22:00,
2013-01-25 12:27:00,37.8,34.0,30.07,East,98,5.8,5.8,86,0.00,-RA,,0.08,WeatherDisplay:10.37,2013-01-25 20:27:00,
2013-01-25 12:32:00,36.7,33.8,30.07,ESE,111,5.8,5.8,89,0.00,-RA,,0.08,WeatherDisplay:10.37,2013-01-25 20:32:00,
2013-01-25 12:37:00,36.8,34.1,30.07,ESE,111,3.5,3.5,90,0.00,-RA,,0.08,WeatherDisplay:10.37,2013-01-25 20:37:00,
2013-01-25 12:42:00,36.8,34.1,30.07,ESE,112,4.6,4.6,90,0.00,-RA,,0.08,WeatherDisplay:10.37,2013-01-25 20:42:00,
2013-01-25 12:47:00,37.4,34.7,30.07,ESE,111,3.5,3.5,90,0.01,-RA,,0.09,WeatherDisplay:10.37,2013-01-25 20:47:00,
2013-01-25 12:52:00,37.6,34.9,30.06,ESE,111,2.3,2.3,90,0.01,-RA,,0.09,WeatherDisplay:10.37,2013-01-25 20:52:00,
2013-01-25 12:57:00,38.0,35.3,30.06,ESE,112,2.3,2.3,90,0.01,-RA,,0.09,WeatherDisplay:10.37,2013-01-25 20:57:00,
2013-01-25 13:02:00,38.7,36.0,30.07,ESE,112,0.0,0.0,90,0.01,-RA,,0.09,WeatherDisplay:10.37,2013-01-25 21:02:00,
2013-01-25 13:07:00,39.1,36.1,30.06,ESE,112,0.0,0.0,89,0.01,-RA,,0.09,WeatherDisplay:10.37,2013-01-25 21:07:00,
2013-01-25 13:12:00,39.7,37.0,30.05,ESE,112,0.0,0.0,90,0.01,-RA,,0.09,WeatherDisplay:10.37,2013-01-25 21:12:00,
2013-01-25 13:17:00,40.3,37.6,30.06,ESE,112,0.0,0.0,90,0.01,-RA,,0.09,WeatherDisplay:10.37,2013-01-25 21:17:00,
2013-01-25 13:22:00,40.6,37.3,30.06,ESE,112,2.3,2.3,88,0.01,-RA,,0.09,WeatherDisplay:10.37,2013-01-25 21:22:00,
2013-01-25 13:27:00,40.4,36.8,30.06,NW,325,2.3,2.3,87,0.01,-RA,,0.09,WeatherDisplay:10.37,2013-01-25 21:27:00,
2013-01-25 13:32:00,40.0,36.4,30.06,NE,40,9.2,9.2,87,0.01,-RA,,0.09,WeatherDisplay:10.37,2013-01-25 21:32:00,
2013-01-25 13:37:00,39.4,35.9,30.06,WNW,302,6.9,6.9,87,0.01,-RA,,0.09,WeatherDisplay:10.37,2013-01-25 21:37:00,
2013-01-25 13:42:00,38.8,35.6,30.07,NW,326,2.3,2.3,88,0.02,-RA,,0.10,WeatherDisplay:10.37,2013-01-25 21:42:00,
2013-01-25 13:47:00,38.4,35.4,30.07,NNW,337,3.5,3.5,89,0.01,-RA,,0.10,WeatherDisplay:10.37,2013-01-25 21:47:00,
2013-01-25 13:52:00,38.0,35.0,30.07,NNW,337,2.3,2.3,89,0.01,-RA,,0.10,WeatherDisplay:10.37,2013-01-25 21:52:00,
2013-01-25 13:57:00,37.9,35.2,30.07,NNW,337,3.5,3.5,90,0.01,-RA,,0.10,WeatherDisplay:10.37,2013-01-25 21:57:00,
2013-01-25 14:02:00,37.8,35.1,30.07,NNW,338,2.3,2.3,90,0.02,RA,,0.11,WeatherDisplay:10.37,2013-01-25 22:02:00,
2013-01-25 14:07:00,37.6,34.9,30.07,NNW,337,0.0,0.0,90,0.02,RA,,0.11,WeatherDisplay:10.37,2013-01-25 22:07:00,
2013-01-25 14:12:00,37.4,35.0,30.07,NNW,337,1.1,1.1,91,0.02,OVC,,0.11,WeatherDisplay:10.37,2013-01-25 22:12:00,
2013-01-25 14:17:00,37.4,35.0,30.07,NNW,328,4.0,4.0,91,0.03,RA,,0.12,WeatherDisplay:10.37,2013-01-25 22:17:00,
2013-01-25 14:22:00,36.9,34.5,30.07,NW,315,3.5,3.5,91,0.03,RA,,0.12,WeatherDisplay:10.37,2013-01-25 22:22:00,
2013-01-25 14:27:00,36.5,34.4,30.07,NW,315,3.5,3.5,92,0.03,OVC,,0.12,WeatherDisplay:10.37,2013-01-25 22:27:00,
2013-01-25 14:32:00,36.5,34.4,30.07,SW,234,5.0,5.0,92,0.03,OVC,,0.13,WeatherDisplay:10.37,2013-01-25 22:32:00,
2013-01-25 14:37:00,35.9,33.8,30.07,SSW,197,9.0,9.0,92,0.04,RA,,0.13,WeatherDisplay:10.37,2013-01-25 22:37:00,
2013-01-25 14:42:00,36.0,34.2,30.07,SW,219,8.1,8.1,93,0.03,RA,,0.13,WeatherDisplay:10.37,2013-01-25 22:42:00,
2013-01-25 14:47:00,36.1,34.5,30.07,SW,219,6.9,6.9,94,0.04,RA,,0.14,WeatherDisplay:10.37,2013-01-25 22:47:00,
2013-01-25 14:52:00,35.9,34.1,30.07,SW,219,5.8,5.8,93,0.04,RA,,0.14,WeatherDisplay:10.37,2013-01-25 22:52:00,
2013-01-25 14:57:00,35.7,33.9,30.07,SSW,205,6.0,6.0,93,0.04,OVC,,0.14,WeatherDisplay:10.37,2013-01-25 22:57:00,
2013-01-25 15:02:00,35.5,33.9,30.07,SSW,194,5.8,5.8,94,0.04,-RA,,0.15,WeatherDisplay:10.37,2013-01-25 23:02:00,
2013-01-25 15:07:00,35.3,33.7,30.06,South,188,5.8,5.8,94,0.04,-RA,,0.15,WeatherDisplay:10.37,2013-01-25 23:07:00,
2013-01-25 15:12:00,35.3,33.7,30.06,South,174,6.0,6.0,94,0.04,-RA,,0.15,WeatherDisplay:10.37,2013-01-25 23:12:00,
2013-01-25 15:17:00,34.9,33.3,30.05,South,171,8.1,8.1,94,0.04,-RA,,0.16,WeatherDisplay:10.37,2013-01-25 23:17:00,
2013-01-25 15:22:00,35.0,33.4,30.05,SSE,164,9.2,9.2,94,0.04,-RA,,0.16,WeatherDisplay:10.37,2013-01-25 23:22:00,
2013-01-25 15:27:00,35.2,33.6,30.05,SSE,163,6.9,6.9,94,0.04,-RA,,0.16,WeatherDisplay:10.37,2013-01-25 23:27:00,
2013-01-25 15:32:00,35.4,33.8,30.06,SW,230,3.5,3.5,94,0.05,-RA,,0.17,WeatherDisplay:10.37,2013-01-25 23:32:00,
2013-01-25 15:37:00,35.5,33.9,30.05,WSW,246,3.5,3.5,94,0.04,-RA,,0.17,WeatherDisplay:10.37,2013-01-25 23:37:00,
2013-01-25 15:42:00,35.7,34.1,30.05,SSW,194,4.6,4.6,94,0.04,-RA,,0.17,WeatherDisplay:10.37,2013-01-25 23:42:00,
2013-01-25 15:47:00,36.0,34.4,30.05,South,175,4.6,4.6,94,0.04,-RA,,0.18,WeatherDisplay:10.37,2013-01-25 23:47:00,
2013-01-25 15:52:00,35.9,34.3,30.05,South,169,3.5,3.5,94,0.04,-RA,,0.18,WeatherDisplay:10.37,2013-01-25 23:52:00,
2013-01-25 15:57:00,35.9,34.3,30.05,South,169,3.5,3.5,94,0.04,-RA,,0.18,WeatherDisplay:10.37,2013-01-25 23:57:00,
2013-01-25 16:02:00,35.9,34.3,30.05,South,169,3.5,3.5,94,0.03,-RA,,0.19,WeatherDisplay:10.37,2013-01-26 00:02:00,
2013-01-25 16:07:00,36.0,34.4,30.06,SSW,209,2.3,2.3,94,0.04,-RA,,0.19,WeatherDisplay:10.37,2013-01-26 00:07:00,
2013-01-25 16:12:00,36.1,34.5,30.06,SSW,209,0.0,0.4,94,0.04,-RA,,0.19,WeatherDisplay:10.37,2013-01-26 00:12:00,
2013-01-25 16:17:00,36.1,34.5,30.05,SSW,209,1.1,1.1,94,0.04,-RA,,0.20,WeatherDisplay:10.37,2013-01-26 00:17:00,
2013-01-25 16:22:00,36.1,34.5,30.05,SSW,209,1.1,0.0,94,0.04,-RA,,0.20,WeatherDisplay:10.37,2013-01-26 00:22:00,
2013-01-25 16:27:00,36.2,34.4,30.05,SSW,209,3.5,3.5,93,0.04,-RA,,0.20,WeatherDisplay:10.37,2013-01-26 00:27:00,
2013-01-25 16:32:00,36.3,34.5,30.05,South,180,4.6,4.6,93,0.04,-RA,,0.20,WeatherDisplay:10.37,2013-01-26 00:32:00,
2013-01-25 16:38:00,35.9,33.8,30.04,SSE,167,8.0,8.0,92,0.04,-RA,,0.21,WeatherDisplay:10.37,2013-01-26 00:38:00,
2013-01-25 16:43:00,36.0,33.9,30.04,South,170,10.4,10.4,92,0.04,-RA,,0.21,WeatherDisplay:10.37,2013-01-26 00:43:00,
2013-01-25 16:48:00,36.1,34.3,30.03,South,169,11.5,11.5,93,0.03,-RA,,0.21,WeatherDisplay:10.37,2013-01-26 00:48:00,
2013-01-25 16:53:00,36.4,34.6,30.03,SSE,156,12.7,12.7,93,0.04,-RA,,0.22,WeatherDisplay:10.37,2013-01-26 00:53:00,
2013-01-25 16:58:00,36.8,35.0,30.02,SE,142,11.5,11.5,93,0.04,-RA,,0.22,WeatherDisplay:10.37,2013-01-26 00:58:00,
2013-01-25 17:03:00,36.5,34.7,30.02,SSE,160,11.5,11.5,93,0.04,-RA,,0.22,WeatherDisplay:10.37,2013-01-26 01:03:00,
2013-01-25 17:08:00,36.6,34.8,30.02,SSE,153,10.4,10.4,93,0.03,-RA,,0.22,WeatherDisplay:10.37,2013-01-26 01:08:00,
2013-01-25 17:13:00,36.5,34.4,30.03,South,190,11.5,11.5,92,0.03,-RA,,0.22,WeatherDisplay:10.37,2013-01-26 01:13:00,
2013-01-25 17:18:00,36.5,34.1,30.03,SW,229,11.5,11.5,91,0.02,-RA,,0.22,WeatherDisplay:10.37,2013-01-26 01:18:00,
2013-01-25 17:23:00,36.5,34.4,30.03,WSW,256,10.4,10.4,92,0.02,-RA,,0.22,WeatherDisplay:10.37,2013-01-26 01:23:00,
2013-01-25 17:28:00,36.7,34.6,30.03,SW,229,17.3,17.3,92,0.02,-RA,,0.22,WeatherDisplay:10.37,2013-01-26 01:28:00,
2013-01-25 17:33:00,37.4,35.0,30.02,SSW,209,10.4,10.4,91,0.03,-RA,,0.23,WeatherDisplay:10.37,2013-01-26 01:33:00,
2013-01-25 17:38:00,37.3,34.6,30.02,SSW,209,11.5,11.5,90,0.02,-RA,,0.23,WeatherDisplay:10.37,2013-01-26 01:38:00,
2013-01-25 17:43:00,37.3,34.6,30.02,SSW,207,10.4,10.4,90,0.02,-RA,,0.23,WeatherDisplay:10.37,2013-01-26 01:43:00,
2013-01-25 17:48:00,36.9,34.2,30.02,SSW,199,11.5,11.5,90,0.02,-RA,,0.23,WeatherDisplay:10.37,2013-01-26 01:48:00,
2013-01-25 17:53:00,36.4,33.7,30.02,South,188,8.1,8.1,90,0.01,-RA,,0.23,WeatherDisplay:10.37,2013-01-26 01:53:00,
2013-01-25 17:58:00,36.3,33.6,30.02,SSE,165,5.8,5.8,90,0.02,-RA,,0.24,WeatherDisplay:10.37,2013-01-26 01:58:00,
2013-01-25 18:03:00,36.2,33.8,30.02,SSE,167,3.5,3.5,91,0.02,RA,,0.24,WeatherDisplay:10.37,2013-01-26 02:03:00,
2013-01-25 18:08:00,36.3,33.9,30.02,WSW,238,4.0,4.0,91,0.02,OVC,,0.24,WeatherDisplay:10.37,2013-01-26 02:08:00,
2013-01-25 18:13:00,36.3,33.9,30.02,WSW,237,3.5,3.5,91,0.03,RA,,0.25,WeatherDisplay:10.37,2013-01-26 02:13:00,
2013-01-25 18:18:00,36.3,33.9,30.02,WSW,237,4.0,4.0,91,0.03,RA,,0.25,WeatherDisplay:10.37,2013-01-26 02:18:00,
2013-01-25 18:23:00,36.6,34.2,30.02,SW,221,5.8,5.8,91,0.03,OVC,,0.25,WeatherDisplay:10.37,2013-01-26 02:23:00,
2013-01-25 18:28:00,36.8,34.4,30.02,SSW,210,5.8,5.8,91,0.03,OVC,,0.25,WeatherDisplay:10.37,2013-01-26 02:28:00,
2013-01-25 18:33:00,36.9,34.2,30.02,SSW,210,4.6,4.6,90,0.02,OVC,,0.25,WeatherDisplay:10.37,2013-01-26 02:33:00,
2013-01-25 18:38:00,37.0,34.6,30.01,South,182,4.6,4.6,91,0.02,OVC,,0.25,WeatherDisplay:10.37,2013-01-26 02:38:00,
2013-01-25 18:43:00,36.8,34.1,30.01,SSE,168,5.8,5.8,90,0.02,OVC,,0.25,WeatherDisplay:10.37,2013-01-26 02:43:00,
2013-01-25 18:48:00,36.6,33.9,30.02,SSE,167,4.0,4.0,90,0.02,OVC,,0.25,WeatherDisplay:10.37,2013-01-26 02:48:00,
2013-01-25 18:53:00,36.6,34.2,30.01,SSE,167,4.0,4.0,91,0.02,OVC,,0.25,WeatherDisplay:10.37,2013-01-26 02:53:00,
2013-01-25 18:58:00,36.5,34.1,30.01,SSE,167,5.0,5.0,91,0.01,OVC,,0.25,WeatherDisplay:10.37,2013-01-26 02:58:00,
2013-01-25 19:03:00,36.1,33.7,30.00,SSE,167,4.0,4.0,91,0.01,-RA,,0.25,WeatherDisplay:10.37,2013-01-26 03:03:00,
2013-01-25 19:08:00,36.1,33.7,30.00,SSE,167,3.5,3.5,91,0.01,-RA,,0.25,WeatherDisplay:10.37,2013-01-26 03:08:00,
2013-01-25 19:13:00,36.1,33.7,30.00,SSE,165,3.5,3.5,91,0.00,-RA,,0.25,WeatherDisplay:10.37,2013-01-26 03:13:00,
2013-01-25 19:18:00,36.1,33.7,30.00,SSE,159,4.6,4.6,91,0.00,-RA,,0.25,WeatherDisplay:10.37,2013-01-26 03:18:00,
2013-01-25 19:23:00,36.2,34.1,29.99,SSE,152,5.0,5.0,92,0.00,-RA,,0.25,WeatherDisplay:10.37,2013-01-26 03:23:00,
2013-01-25 19:28:00,36.1,34.0,29.99,ESE,123,6.9,6.9,92,0.00,-RA,,0.25,WeatherDisplay:10.37,2013-01-26 03:28:00,
2013-01-25 19:33:00,35.2,33.1,30.00,ESE,123,4.6,4.6,92,0.00,-RA,,0.25,WeatherDisplay:10.37,2013-01-26 03:33:00,
2013-01-25 19:38:00,35.0,33.2,30.00,SE,130,5.0,5.0,93,0.00,-RA,,0.25,WeatherDisplay:10.37,2013-01-26 03:38:00,
2013-01-25 19:43:00,35.2,33.4,30.00,SE,136,5.0,5.0,93,0.00,-RA,,0.25,WeatherDisplay:10.37,2013-01-26 03:43:00,
2013-01-25 19:48:00,35.4,33.8,30.00,SE,139,3.5,3.5,94,0.00,-RA,,0.25,WeatherDisplay:10.37,2013-01-26 03:48:00,
2013-01-25 19:53:00,35.2,33.4,30.00,SE,138,3.5,3.5,93,0.00,-RA,,0.25,WeatherDisplay:10.37,2013-01-26 03:53:00,
2013-01-25 19:58:00,34.9,33.1,30.00,SE,138,2.3,2.3,93,0.00,-RA,,0.25,WeatherDisplay:10.37,2013-01-26 03:58:00,
2013-01-25 20:03:00,34.4,32.6,30.00,NE,34,4.6,4.6,93,0.00,OVC,,0.25,WeatherDisplay:10.37,2013-01-26 04:03:00,
2013-01-25 20:08:00,34.5,33.0,30.00,NE,34,2.3,2.3,94,0.00,OVC,,0.25,WeatherDisplay:10.37,2013-01-26 04:08:00,
2013-01-25 20:13:00,34.7,33.2,29.99,NE,34,0.0,0.0,94,0.00,OVC,,0.25,WeatherDisplay:10.37,2013-01-26 04:13:00,
2013-01-25 20:18:00,34.6,33.1,29.99,NE,34,2.3,2.3,94,0.00,OVC,,0.25,WeatherDisplay:10.37,2013-01-26 04:18:00,
2013-01-25 20:23:00,34.4,32.9,29.99,NE,34,2.3,2.3,94,0.00,OVC,,0.25,WeatherDisplay:10.37,2013-01-26 04:23:00,
2013-01-25 20:28:00,34.4,32.9,29.99,NE,34,0.0,0.0,94,0.00,OVC,,0.25,WeatherDisplay:10.37,2013-01-26 04:28:00,
2013-01-25 20:33:00,34.4,32.9,29.99,NE,34,2.3,2.3,94,0.00,OVC,,0.25,WeatherDisplay:10.37,2013-01-26 04:33:00,
2013-01-25 20:38:00,34.4,32.9,29.99,NE,34,2.3,2.3,94,0.00,OVC,,0.25,WeatherDisplay:10.37,2013-01-26 04:38:00,
2013-01-25 20:43:00,34.4,32.9,29.99,NE,34,1.1,1.1,94,0.00,OVC,,0.25,WeatherDisplay:10.37,2013-01-26 04:43:00,
2013-01-25 20:48:00,34.4,32.9,29.99,East,84,2.3,2.3,94,0.00,OVC,,0.25,WeatherDisplay:10.37,2013-01-26 04:48:00,
2013-01-25 20:53:00,34.4,32.9,29.99,ENE,76,3.5,3.5,94,0.00,OVC,,0.25,WeatherDisplay:10.37,2013-01-26 04:53:00,
2013-01-25 20:58:00,34.4,32.9,29.98,ENE,76,1.1,1.1,94,0.00,OVC,,0.25,WeatherDisplay:10.37,2013-01-26 04:58:00,
2013-01-25 21:00:00,34.4,32.9,29.98,ENE,76,0.0,0.0,94,0.00,OVC,,0.25,WeatherDisplay:10.37,2013-01-26 05:00:00,
2013-01-25 21:05:00,34.3,32.8,29.98,ENE,75,2.3,2.3,94,0.00,OVC,,0.25,WeatherDisplay:10.37,2013-01-26 05:05:00,
2013-01-25 21:10:00,34.2,32.7,29.98,ENE,76,2.3,2.3,94,0.00,OVC,,0.25,WeatherDisplay:10.37,2013-01-26 05:10:00,
2013-01-25 21:15:00,34.2,32.7,29.98,ENE,76,3.5,3.5,94,0.00,OVC,,0.25,WeatherDisplay:10.37,2013-01-26 05:15:00,
2013-01-25 21:20:00,34.3,32.8,29.98,ENE,76,3.5,3.5,94,0.00,OVC,,0.25,WeatherDisplay:10.37,2013-01-26 05:20:00,
2013-01-25 21:26:00,34.4,33.1,29.98,ESE,113,3.5,3.5,95,0.00,OVC,,0.25,WeatherDisplay:10.37,2013-01-26 05:26:00,
2013-01-25 21:31:00,34.3,33.0,29.98,ESE,115,3.5,3.5,95,0.00,OVC,,0.25,WeatherDisplay:10.37,2013-01-26 05:31:00,
2013-01-25 21:35:00,34.0,32.5,29.97,ESE,115,0.0,0.0,94,0.00,OVC,,0.25,WeatherDisplay:10.37,2013-01-26 05:35:00,
2013-01-25 21:41:00,33.8,32.3,29.97,ESE,115,0.0,0.0,94,0.00,OVC,,0.25,WeatherDisplay:10.37,2013-01-26 05:41:00,
2013-01-25 21:46:00,33.8,32.5,29.97,ESE,115,2.3,2.3,95,0.00,OVC,,0.25,WeatherDisplay:10.37,2013-01-26 05:46:00,
2013-01-25 21:51:00,34.0,32.7,29.97,ESE,115,0.0,0.0,95,0.00,OVC,,0.25,WeatherDisplay:10.37,2013-01-26 05:51:00,
2013-01-25 21:56:00,34.0,32.7,29.97,ESE,115,2.3,2.3,95,0.00,OVC,,0.25,WeatherDisplay:10.37,2013-01-26 05:56:00,
2013-01-25 22:01:00,34.1,32.8,29.96,ESE,115,0.0,0.0,95,0.00,OVC,,0.25,WeatherDisplay:10.37,2013-01-26 06:01:00,
2013-01-25 22:06:00,33.9,32.6,29.96,ESE,115,2.3,2.3,95,0.00,OVC,,0.25,WeatherDisplay:10.37,2013-01-26 06:06:00,
2013-01-25 22:11:00,33.8,32.5,29.96,ESE,115,2.3,2.3,95,0.00,OVC,,0.25,WeatherDisplay:10.37,2013-01-26 06:11:00,
2013-01-25 22:16:00,33.9,32.6,29.96,ESE,115,2.3,2.3,95,0.00,OVC,,0.25,WeatherDisplay:10.37,2013-01-26 06:16:00,
2013-01-25 22:21:00,33.9,32.6,29.96,ESE,109,1.1,1.1,95,0.00,OVC,,0.25,WeatherDisplay:10.37,2013-01-26 06:21:00,
2013-01-25 22:26:00,34.1,32.8,29.96,ESE,109,0.0,0.0,95,0.00,OVC,,0.25,WeatherDisplay:10.37,2013-01-26 06:26:00,
2013-01-25 22:31:00,34.4,33.1,29.97,ESE,109,0.0,0.0,95,0.00,OVC,,0.25,WeatherDisplay:10.37,2013-01-26 06:31:00,
2013-01-25 22:36:00,34.7,33.4,29.97,ESE,109,0.0,0.0,95,0.00,OVC,,0.25,WeatherDisplay:10.37,2013-01-26 06:36:00,
2013-01-25 22:41:00,35.0,33.7,29.97,ESE,109,0.0,0.0,95,0.00,OVC,,0.25,WeatherDisplay:10.37,2013-01-26 06:41:00,
2013-01-25 22:46:00,35.2,33.9,29.97,ESE,109,0.0,0.0,95,0.00,OVC,,0.25,WeatherDisplay:10.37,2013-01-26 06:46:00,
2013-01-25 22:51:00,35.1,33.8,29.97,ESE,109,0.0,0.0,95,0.00,OVC,,0.25,WeatherDisplay:10.37,2013-01-26 06:51:00,
2013-01-25 22:56:00,35.2,33.9,29.96,ESE,109,3.5,3.5,95,0.00,OVC,,0.25,WeatherDisplay:10.37,2013-01-26 06:56:00,
2013-01-25 23:01:00,35.4,34.1,29.96,ESE,109,3.5,3.5,95,0.00,OVC,,0.25,WeatherDisplay:10.37,2013-01-26 07:01:00,
2013-01-25 23:06:00,35.4,34.1,29.96,ESE,109,0.0,0.0,95,0.00,OVC,,0.25,WeatherDisplay:10.37,2013-01-26 07:06:00,
2013-01-25 23:11:00,35.5,34.2,29.96,ESE,109,2.0,2.0,95,0.00,OVC,,0.25,WeatherDisplay:10.37,2013-01-26 07:11:00,
2013-01-25 23:16:00,35.3,34.0,29.96,ESE,109,0.0,0.0,95,0.00,OVC,,0.25,WeatherDisplay:10.37,2013-01-26 07:16:00,
2013-01-25 23:21:00,35.0,33.7,29.96,ESE,109,0.0,0.0,95,0.00,OVC,,0.25,WeatherDisplay:10.37,2013-01-26 07:21:00,
2013-01-25 23:26:00,34.9,33.6,29.96,ESE,109,0.0,0.0,95,0.00,OVC,,0.25,WeatherDisplay:10.37,2013-01-26 07:26:00,
2013-01-25 23:31:00,35.1,33.8,29.96,ESE,109,1.1,1.1,95,0.00,OVC,,0.25,WeatherDisplay:10.37,2013-01-26 07:31:00,
2013-01-25 23:36:00,35.3,34.0,29.96,ESE,109,1.1,1.1,95,0.00,OVC,,0.25,WeatherDisplay:10.37,2013-01-26 07:36:00,
2013-01-25 23:41:00,35.3,34.0,29.96,ESE,109,0.0,0.0,95,0.00,OVC,,0.25,WeatherDisplay:10.37,2013-01-26 07:41:00,
2013-01-25 23:46:00,35.4,34.1,29.96,ESE,109,2.3,2.3,95,0.00,OVC,,0.25,WeatherDisplay:10.37,2013-01-26 07:46:00,
2013-01-25 23:51:00,35.3,34.0,29.96,ESE,109,0.0,0.0,95,0.00,OVC,,0.25,WeatherDisplay:10.37,2013-01-26 07:51:00,
2013-01-25 23:56:00,35.3,33.7,29.96,ESE,109,0.0,0.0,94,0.00,OVC,,0.25,WeatherDisplay:10.37,2013-01-26 07:56:00,